sensor_id;sensor_type;location;lat;lon;timestamp;P1;durP1;ratioP1;P2;durP2;ratioP2
58615;SDS011;44385;51.992;4.206;2023-04-23T00:01:31;52.13;;;37.90;;
58615;SDS011;44385;51.992;4.206;2023-04-23T00:04:03;51.35;;;38.95;;
58615;SDS011;44385;51.992;4.206;2023-04-23T00:06:30;53.63;;;40.75;;
58615;SDS011;44385;51.992;4.206;2023-04-23T00:08:58;52.45;;;38.65;;
58615;SDS011;44385;51.992;4.206;2023-04-23T00:11:25;47.97;;;37.58;;
58615;SDS011;44385;51.992;4.206;2023-04-23T00:13:53;51.50;;;39.55;;
58615;SDS011;44385;51.992;4.206;2023-04-23T00:16:20;48.97;;;37.45;;
58615;SDS011;44385;51.992;4.206;2023-04-23T00:18:46;48.58;;;38.25;;
58615;SDS011;44385;51.992;4.206;2023-04-23T00:21:13;49.60;;;37.53;;
58615;SDS011;44385;51.992;4.206;2023-04-23T00:23:43;50.80;;;38.17;;
58615;SDS011;44385;51.992;4.206;2023-04-23T00:26:09;51.15;;;36.58;;
58615;SDS011;44385;51.992;4.206;2023-04-23T00:28:36;48.08;;;36.58;;
58615;SDS011;44385;51.992;4.206;2023-04-23T00:31:03;44.40;;;35.22;;
58615;SDS011;44385;51.992;4.206;2023-04-23T00:33:30;49.28;;;36.45;;
58615;SDS011;44385;51.992;4.206;2023-04-23T00:35:57;50.47;;;38.38;;
58615;SDS011;44385;51.992;4.206;2023-04-23T00:38:23;49.08;;;35.83;;
58615;SDS011;44385;51.992;4.206;2023-04-23T00:40:50;45.42;;;35.28;;
58615;SDS011;44385;51.992;4.206;2023-04-23T00:43:16;49.60;;;36.83;;
58615;SDS011;44385;51.992;4.206;2023-04-23T00:45:43;47.97;;;36.65;;
58615;SDS011;44385;51.992;4.206;2023-04-23T00:48:11;46.85;;;36.13;;
58615;SDS011;44385;51.992;4.206;2023-04-23T00:50:41;51.15;;;37.63;;
58615;SDS011;44385;51.992;4.206;2023-04-23T00:53:07;44.95;;;36.22;;
58615;SDS011;44385;51.992;4.206;2023-04-23T00:55:34;48.78;;;37.78;;
58615;SDS011;44385;51.992;4.206;2023-04-23T00:58:00;49.45;;;37.45;;
58615;SDS011;44385;51.992;4.206;2023-04-23T01:00:27;48.40;;;37.17;;
58615;SDS011;44385;51.992;4.206;2023-04-23T01:02:55;48.03;;;36.92;;
58615;SDS011;44385;51.992;4.206;2023-04-23T01:05:23;47.55;;;37.97;;
58615;SDS011;44385;51.992;4.206;2023-04-23T01:07:50;48.97;;;36.38;;
58615;SDS011;44385;51.992;4.206;2023-04-23T01:10:17;49.33;;;35.67;;
58615;SDS011;44385;51.992;4.206;2023-04-23T01:12:43;50.25;;;36.28;;
58615;SDS011;44385;51.992;4.206;2023-04-23T01:15:10;50.33;;;37.47;;
58615;SDS011;44385;51.992;4.206;2023-04-23T01:17:37;46.55;;;35.38;;
58615;SDS011;44385;51.992;4.206;2023-04-23T01:20:04;49.05;;;36.90;;
58615;SDS011;44385;51.992;4.206;2023-04-23T01:22:33;52.17;;;39.17;;
58615;SDS011;44385;51.992;4.206;2023-04-23T01:25:00;51.63;;;38.05;;
58615;SDS011;44385;51.992;4.206;2023-04-23T01:27:27;47.25;;;37.55;;
58615;SDS011;44385;51.992;4.206;2023-04-23T01:29:54;47.85;;;35.63;;
58615;SDS011;44385;51.992;4.206;2023-04-23T01:32:20;50.45;;;37.95;;
58615;SDS011;44385;51.992;4.206;2023-04-23T01:34:48;47.30;;;37.35;;
58615;SDS011;44385;51.992;4.206;2023-04-23T01:37:18;49.88;;;35.72;;
58615;SDS011;44385;51.992;4.206;2023-04-23T01:39:46;44.42;;;36.20;;
58615;SDS011;44385;51.992;4.206;2023-04-23T01:42:12;45.22;;;35.65;;
58615;SDS011;44385;51.992;4.206;2023-04-23T01:44:39;45.17;;;33.78;;
58615;SDS011;44385;51.992;4.206;2023-04-23T01:47:06;43.13;;;32.80;;
58615;SDS011;44385;51.992;4.206;2023-04-23T01:49:33;40.92;;;33.15;;
58615;SDS011;44385;51.992;4.206;2023-04-23T01:51:59;40.88;;;33.17;;
58615;SDS011;44385;51.992;4.206;2023-04-23T01:54:26;42.10;;;33.58;;
58615;SDS011;44385;51.992;4.206;2023-04-23T01:56:53;42.45;;;33.05;;
58615;SDS011;44385;51.992;4.206;2023-04-23T01:59:21;43.50;;;34.08;;
58615;SDS011;44385;51.992;4.206;2023-04-23T02:01:47;41.78;;;33.13;;
58615;SDS011;44385;51.992;4.206;2023-04-23T02:04:15;43.45;;;34.10;;
58615;SDS011;44385;51.992;4.206;2023-04-23T02:06:43;40.40;;;32.15;;
58615;SDS011;44385;51.992;4.206;2023-04-23T02:09:09;43.97;;;34.13;;
58615;SDS011;44385;51.992;4.206;2023-04-23T02:11:39;50.05;;;35.63;;
58615;SDS011;44385;51.992;4.206;2023-04-23T02:14:07;45.42;;;36.25;;
58615;SDS011;44385;51.992;4.206;2023-04-23T02:16:34;47.33;;;35.67;;
58615;SDS011;44385;51.992;4.206;2023-04-23T02:19:00;44.03;;;35.22;;
58615;SDS011;44385;51.992;4.206;2023-04-23T02:21:27;48.95;;;35.78;;
58615;SDS011;44385;51.992;4.206;2023-04-23T02:23:55;45.22;;;36.80;;
58615;SDS011;44385;51.992;4.206;2023-04-23T02:26:21;44.08;;;34.72;;
58615;SDS011;44385;51.992;4.206;2023-04-23T02:28:52;44.95;;;34.63;;
58615;SDS011;44385;51.992;4.206;2023-04-23T02:31:19;51.03;;;39.05;;
58615;SDS011;44385;51.992;4.206;2023-04-23T02:33:49;48.88;;;36.20;;
58615;SDS011;44385;51.992;4.206;2023-04-23T02:36:15;45.65;;;35.42;;
58615;SDS011;44385;51.992;4.206;2023-04-23T02:38:42;45.92;;;35.78;;
58615;SDS011;44385;51.992;4.206;2023-04-23T02:41:09;47.28;;;36.97;;
58615;SDS011;44385;51.992;4.206;2023-04-23T02:43:36;48.45;;;37.00;;
58615;SDS011;44385;51.992;4.206;2023-04-23T02:46:03;48.20;;;35.15;;
58615;SDS011;44385;51.992;4.206;2023-04-23T02:48:35;46.25;;;36.80;;
58615;SDS011;44385;51.992;4.206;2023-04-23T02:51:01;47.08;;;36.75;;
58615;SDS011;44385;51.992;4.206;2023-04-23T02:53:31;48.00;;;37.03;;
58615;SDS011;44385;51.992;4.206;2023-04-23T02:55:57;44.97;;;36.53;;
58615;SDS011;44385;51.992;4.206;2023-04-23T02:58:24;47.78;;;36.60;;
58615;SDS011;44385;51.992;4.206;2023-04-23T03:00:51;47.25;;;35.88;;
58615;SDS011;44385;51.992;4.206;2023-04-23T03:03:17;46.83;;;36.53;;
58615;SDS011;44385;51.992;4.206;2023-04-23T03:05:45;42.67;;;34.50;;
58615;SDS011;44385;51.992;4.206;2023-04-23T03:08:13;45.75;;;35.05;;
58615;SDS011;44385;51.992;4.206;2023-04-23T03:10:40;45.50;;;35.55;;
58615;SDS011;44385;51.992;4.206;2023-04-23T03:13:06;43.17;;;33.33;;
58615;SDS011;44385;51.992;4.206;2023-04-23T03:15:33;44.88;;;33.90;;
58615;SDS011;44385;51.992;4.206;2023-04-23T03:17:59;45.63;;;34.70;;
58615;SDS011;44385;51.992;4.206;2023-04-23T03:20:26;42.05;;;33.53;;
58615;SDS011;44385;51.992;4.206;2023-04-23T03:22:54;41.53;;;33.38;;
58615;SDS011;44385;51.992;4.206;2023-04-23T03:25:20;43.08;;;33.03;;
58615;SDS011;44385;51.992;4.206;2023-04-23T03:27:51;42.40;;;33.70;;
58615;SDS011;44385;51.992;4.206;2023-04-23T03:30:18;41.53;;;33.70;;
58615;SDS011;44385;51.992;4.206;2023-04-23T03:32:45;42.58;;;32.90;;
58615;SDS011;44385;51.992;4.206;2023-04-23T03:35:11;38.80;;;31.70;;
58615;SDS011;44385;51.992;4.206;2023-04-23T03:37:41;44.47;;;32.83;;
58615;SDS011;44385;51.992;4.206;2023-04-23T03:40:09;41.47;;;32.03;;
58615;SDS011;44385;51.992;4.206;2023-04-23T03:42:35;40.13;;;32.20;;
58615;SDS011;44385;51.992;4.206;2023-04-23T03:45:02;43.00;;;32.28;;
58615;SDS011;44385;51.992;4.206;2023-04-23T03:47:29;42.33;;;32.08;;
58615;SDS011;44385;51.992;4.206;2023-04-23T03:49:56;42.45;;;31.25;;
58615;SDS011;44385;51.992;4.206;2023-04-23T03:52:23;40.60;;;30.67;;
58615;SDS011;44385;51.992;4.206;2023-04-23T03:54:49;39.25;;;30.77;;
58615;SDS011;44385;51.992;4.206;2023-04-23T03:57:17;40.05;;;31.15;;
58615;SDS011;44385;51.992;4.206;2023-04-23T03:59:44;37.83;;;29.55;;
58615;SDS011;44385;51.992;4.206;2023-04-23T04:02:10;38.00;;;30.63;;
58615;SDS011;44385;51.992;4.206;2023-04-23T04:04:37;38.55;;;29.13;;
58615;SDS011;44385;51.992;4.206;2023-04-23T04:07:03;41.13;;;29.08;;
58615;SDS011;44385;51.992;4.206;2023-04-23T04:09:31;42.35;;;31.80;;
58615;SDS011;44385;51.992;4.206;2023-04-23T04:11:58;37.70;;;28.90;;
58615;SDS011;44385;51.992;4.206;2023-04-23T04:14:26;35.33;;;29.60;;
58615;SDS011;44385;51.992;4.206;2023-04-23T04:16:52;36.17;;;28.73;;
58615;SDS011;44385;51.992;4.206;2023-04-23T04:19:19;37.00;;;28.60;;
58615;SDS011;44385;51.992;4.206;2023-04-23T04:21:45;37.38;;;28.50;;
58615;SDS011;44385;51.992;4.206;2023-04-23T04:24:12;35.15;;;28.25;;
58615;SDS011;44385;51.992;4.206;2023-04-23T04:26:38;34.75;;;28.48;;
58615;SDS011;44385;51.992;4.206;2023-04-23T04:29:06;35.20;;;27.80;;
58615;SDS011;44385;51.992;4.206;2023-04-23T04:31:34;35.22;;;27.80;;
58615;SDS011;44385;51.992;4.206;2023-04-23T04:34:01;37.05;;;27.80;;
58615;SDS011;44385;51.992;4.206;2023-04-23T04:36:28;34.90;;;27.08;;
58615;SDS011;44385;51.992;4.206;2023-04-23T04:38:55;33.70;;;27.63;;
58615;SDS011;44385;51.992;4.206;2023-04-23T04:41:23;34.67;;;27.65;;
58615;SDS011;44385;51.992;4.206;2023-04-23T04:43:51;37.33;;;27.67;;
58615;SDS011;44385;51.992;4.206;2023-04-23T04:46:18;32.50;;;26.08;;
58615;SDS011;44385;51.992;4.206;2023-04-23T04:48:46;34.65;;;25.92;;
58615;SDS011;44385;51.992;4.206;2023-04-23T04:51:13;35.55;;;26.70;;
58615;SDS011;44385;51.992;4.206;2023-04-23T04:53:39;34.80;;;26.98;;
58615;SDS011;44385;51.992;4.206;2023-04-23T04:56:06;39.13;;;26.35;;
58615;SDS011;44385;51.992;4.206;2023-04-23T04:58:32;32.35;;;25.83;;
58615;SDS011;44385;51.992;4.206;2023-04-23T05:00:59;32.17;;;25.63;;
58615;SDS011;44385;51.992;4.206;2023-04-23T05:03:25;29.27;;;24.10;;
58615;SDS011;44385;51.992;4.206;2023-04-23T05:05:53;31.38;;;25.33;;
58615;SDS011;44385;51.992;4.206;2023-04-23T05:08:20;34.30;;;25.20;;
58615;SDS011;44385;51.992;4.206;2023-04-23T05:10:46;33.75;;;25.33;;
58615;SDS011;44385;51.992;4.206;2023-04-23T05:13:14;35.00;;;26.58;;
58615;SDS011;44385;51.992;4.206;2023-04-23T05:15:41;36.55;;;28.35;;
58615;SDS011;44385;51.992;4.206;2023-04-23T05:18:08;33.85;;;27.05;;
58615;SDS011;44385;51.992;4.206;2023-04-23T05:20:34;32.17;;;25.70;;
58615;SDS011;44385;51.992;4.206;2023-04-23T05:23:02;29.15;;;25.48;;
58615;SDS011;44385;51.992;4.206;2023-04-23T05:25:29;35.22;;;25.85;;
58615;SDS011;44385;51.992;4.206;2023-04-23T05:27:56;33.65;;;26.67;;
58615;SDS011;44385;51.992;4.206;2023-04-23T05:30:22;36.70;;;28.08;;
58615;SDS011;44385;51.992;4.206;2023-04-23T05:32:49;34.47;;;25.35;;
58615;SDS011;44385;51.992;4.206;2023-04-23T05:35:15;34.88;;;27.33;;
58615;SDS011;44385;51.992;4.206;2023-04-23T05:37:42;33.47;;;26.58;;
58615;SDS011;44385;51.992;4.206;2023-04-23T05:40:10;38.83;;;27.48;;
58615;SDS011;44385;51.992;4.206;2023-04-23T05:42:37;33.23;;;27.00;;
58615;SDS011;44385;51.992;4.206;2023-04-23T05:45:04;33.40;;;26.77;;
58615;SDS011;44385;51.992;4.206;2023-04-23T05:47:30;35.65;;;27.60;;
58615;SDS011;44385;51.992;4.206;2023-04-23T05:49:57;35.97;;;27.15;;
58615;SDS011;44385;51.992;4.206;2023-04-23T05:52:23;33.45;;;26.00;;
58615;SDS011;44385;51.992;4.206;2023-04-23T05:54:50;36.05;;;26.88;;
58615;SDS011;44385;51.992;4.206;2023-04-23T05:57:18;35.30;;;26.02;;
58615;SDS011;44385;51.992;4.206;2023-04-23T05:59:44;33.13;;;25.85;;
58615;SDS011;44385;51.992;4.206;2023-04-23T06:02:11;34.70;;;26.75;;
58615;SDS011;44385;51.992;4.206;2023-04-23T06:04:38;31.27;;;25.40;;
58615;SDS011;44385;51.992;4.206;2023-04-23T06:07:05;30.23;;;23.10;;
58615;SDS011;44385;51.992;4.206;2023-04-23T06:09:31;28.77;;;22.25;;
58615;SDS011;44385;51.992;4.206;2023-04-23T06:11:58;28.00;;;20.83;;
58615;SDS011;44385;51.992;4.206;2023-04-23T06:14:26;29.33;;;20.85;;
58615;SDS011;44385;51.992;4.206;2023-04-23T06:16:52;24.70;;;19.50;;
58615;SDS011;44385;51.992;4.206;2023-04-23T06:19:18;28.27;;;21.63;;
58615;SDS011;44385;51.992;4.206;2023-04-23T06:21:45;27.40;;;19.10;;
58615;SDS011;44385;51.992;4.206;2023-04-23T06:24:12;26.85;;;19.42;;
58615;SDS011;44385;51.992;4.206;2023-04-23T06:26:38;24.48;;;18.42;;
58615;SDS011;44385;51.992;4.206;2023-04-23T06:29:05;21.70;;;16.95;;
58615;SDS011;44385;51.992;4.206;2023-04-23T06:31:33;22.58;;;17.90;;
58615;SDS011;44385;51.992;4.206;2023-04-23T06:33:59;23.75;;;17.50;;
58615;SDS011;44385;51.992;4.206;2023-04-23T06:36:26;24.23;;;16.55;;
58615;SDS011;44385;51.992;4.206;2023-04-23T06:38:52;21.35;;;16.55;;
58615;SDS011;44385;51.992;4.206;2023-04-23T06:41:19;21.98;;;15.38;;
58615;SDS011;44385;51.992;4.206;2023-04-23T06:43:45;22.30;;;16.17;;
58615;SDS011;44385;51.992;4.206;2023-04-23T06:46:12;22.58;;;15.00;;
58615;SDS011;44385;51.992;4.206;2023-04-23T06:48:40;18.98;;;15.48;;
58615;SDS011;44385;51.992;4.206;2023-04-23T06:51:07;21.65;;;14.70;;
58615;SDS011;44385;51.992;4.206;2023-04-23T06:53:33;19.38;;;13.80;;
58615;SDS011;44385;51.992;4.206;2023-04-23T06:56:00;18.95;;;11.55;;
58615;SDS011;44385;51.992;4.206;2023-04-23T06:58:26;20.85;;;12.52;;
58615;SDS011;44385;51.992;4.206;2023-04-23T07:03:24;18.05;;;13.25;;
58615;SDS011;44385;51.992;4.206;2023-04-23T07:05:51;18.98;;;11.35;;
58615;SDS011;44385;51.992;4.206;2023-04-23T07:08:18;18.02;;;12.90;;
58615;SDS011;44385;51.992;4.206;2023-04-23T07:10:45;15.23;;;11.25;;
58615;SDS011;44385;51.992;4.206;2023-04-23T07:13:11;17.60;;;12.65;;
58615;SDS011;44385;51.992;4.206;2023-04-23T07:15:41;20.15;;;11.82;;
58615;SDS011;44385;51.992;4.206;2023-04-23T07:18:08;18.83;;;10.57;;
58615;SDS011;44385;51.992;4.206;2023-04-23T07:20:34;15.02;;;11.45;;
58615;SDS011;44385;51.992;4.206;2023-04-23T07:23:02;13.68;;;9.93;;
58615;SDS011;44385;51.992;4.206;2023-04-23T07:25:29;13.75;;;9.75;;
58615;SDS011;44385;51.992;4.206;2023-04-23T07:27:56;17.08;;;10.13;;
58615;SDS011;44385;51.992;4.206;2023-04-23T07:30:23;14.68;;;9.73;;
58615;SDS011;44385;51.992;4.206;2023-04-23T07:32:50;13.23;;;9.18;;
58615;SDS011;44385;51.992;4.206;2023-04-23T07:35:16;13.18;;;9.93;;
58615;SDS011;44385;51.992;4.206;2023-04-23T07:37:43;14.10;;;10.52;;
58615;SDS011;44385;51.992;4.206;2023-04-23T07:40:11;17.15;;;8.68;;
58615;SDS011;44385;51.992;4.206;2023-04-23T07:42:38;14.00;;;8.68;;
58615;SDS011;44385;51.992;4.206;2023-04-23T07:45:05;17.15;;;8.90;;
58615;SDS011;44385;51.992;4.206;2023-04-23T07:47:31;20.58;;;8.45;;
58615;SDS011;44385;51.992;4.206;2023-04-23T07:49:58;15.27;;;9.10;;
58615;SDS011;44385;51.992;4.206;2023-04-23T07:52:24;15.75;;;8.15;;
58615;SDS011;44385;51.992;4.206;2023-04-23T07:54:51;14.77;;;8.00;;
58615;SDS011;44385;51.992;4.206;2023-04-23T07:57:18;12.68;;;8.13;;
58615;SDS011;44385;51.992;4.206;2023-04-23T07:59:45;15.23;;;8.43;;
58615;SDS011;44385;51.992;4.206;2023-04-23T08:02:14;15.82;;;8.68;;
58615;SDS011;44385;51.992;4.206;2023-04-23T08:04:42;15.68;;;8.88;;
58615;SDS011;44385;51.992;4.206;2023-04-23T08:07:08;13.80;;;8.20;;
58615;SDS011;44385;51.992;4.206;2023-04-23T08:09:35;13.27;;;8.23;;
58615;SDS011;44385;51.992;4.206;2023-04-23T08:12:02;13.48;;;8.05;;
58615;SDS011;44385;51.992;4.206;2023-04-23T08:14:30;12.43;;;7.53;;
58615;SDS011;44385;51.992;4.206;2023-04-23T08:16:56;16.60;;;8.68;;
58615;SDS011;44385;51.992;4.206;2023-04-23T08:19:23;14.38;;;8.52;;
58615;SDS011;44385;51.992;4.206;2023-04-23T08:21:49;11.82;;;7.18;;
58615;SDS011;44385;51.992;4.206;2023-04-23T08:24:16;14.57;;;7.78;;
58615;SDS011;44385;51.992;4.206;2023-04-23T08:26:43;10.20;;;7.78;;
58615;SDS011;44385;51.992;4.206;2023-04-23T08:29:10;15.70;;;8.90;;
58615;SDS011;44385;51.992;4.206;2023-04-23T08:31:38;11.73;;;7.38;;
58615;SDS011;44385;51.992;4.206;2023-04-23T08:34:05;16.63;;;7.75;;
58615;SDS011;44385;51.992;4.206;2023-04-23T08:36:31;13.40;;;8.52;;
58615;SDS011;44385;51.992;4.206;2023-04-23T08:38:58;12.68;;;8.25;;
58615;SDS011;44385;51.992;4.206;2023-04-23T08:41:26;15.38;;;8.35;;
58615;SDS011;44385;51.992;4.206;2023-04-23T08:43:56;11.52;;;8.68;;
58615;SDS011;44385;51.992;4.206;2023-04-23T08:46:28;16.30;;;8.55;;
58615;SDS011;44385;51.992;4.206;2023-04-23T08:48:57;14.02;;;8.95;;
58615;SDS011;44385;51.992;4.206;2023-04-23T08:51:24;12.30;;;8.45;;
58615;SDS011;44385;51.992;4.206;2023-04-23T08:53:51;14.02;;;7.70;;
58615;SDS011;44385;51.992;4.206;2023-04-23T08:56:19;12.95;;;7.32;;
58615;SDS011;44385;51.992;4.206;2023-04-23T08:58:47;13.93;;;7.57;;
58615;SDS011;44385;51.992;4.206;2023-04-23T09:01:15;13.18;;;8.48;;
58615;SDS011;44385;51.992;4.206;2023-04-23T09:03:42;14.13;;;7.50;;
58615;SDS011;44385;51.992;4.206;2023-04-23T09:06:10;15.60;;;8.90;;
58615;SDS011;44385;51.992;4.206;2023-04-23T09:08:37;15.45;;;8.35;;
58615;SDS011;44385;51.992;4.206;2023-04-23T09:11:03;12.23;;;9.05;;
58615;SDS011;44385;51.992;4.206;2023-04-23T09:13:32;14.93;;;9.10;;
58615;SDS011;44385;51.992;4.206;2023-04-23T09:15:59;16.00;;;9.38;;
58615;SDS011;44385;51.992;4.206;2023-04-23T09:18:25;17.67;;;8.82;;
58615;SDS011;44385;51.992;4.206;2023-04-23T09:20:51;14.90;;;8.73;;
58615;SDS011;44385;51.992;4.206;2023-04-23T09:23:21;12.68;;;8.05;;
58615;SDS011;44385;51.992;4.206;2023-04-23T09:25:49;10.10;;;7.78;;
58615;SDS011;44385;51.992;4.206;2023-04-23T09:28:18;17.80;;;8.85;;
58615;SDS011;44385;51.992;4.206;2023-04-23T09:30:45;16.90;;;8.02;;
58615;SDS011;44385;51.992;4.206;2023-04-23T09:33:12;11.27;;;7.65;;
58615;SDS011;44385;51.992;4.206;2023-04-23T09:35:38;13.10;;;7.75;;
58615;SDS011;44385;51.992;4.206;2023-04-23T09:38:06;13.30;;;7.82;;
58615;SDS011;44385;51.992;4.206;2023-04-23T09:40:36;13.20;;;7.90;;
58615;SDS011;44385;51.992;4.206;2023-04-23T09:43:03;17.20;;;8.73;;
58615;SDS011;44385;51.992;4.206;2023-04-23T09:45:32;17.67;;;7.68;;
58615;SDS011;44385;51.992;4.206;2023-04-23T09:48:00;14.90;;;7.07;;
58615;SDS011;44385;51.992;4.206;2023-04-23T09:50:33;12.65;;;7.43;;
58615;SDS011;44385;51.992;4.206;2023-04-23T09:53:01;12.57;;;7.18;;
58615;SDS011;44385;51.992;4.206;2023-04-23T09:55:29;12.00;;;7.85;;
58615;SDS011;44385;51.992;4.206;2023-04-23T09:58:04;11.38;;;6.10;;
58615;SDS011;44385;51.992;4.206;2023-04-23T10:00:31;16.33;;;7.38;;
58615;SDS011;44385;51.992;4.206;2023-04-23T10:02:58;12.32;;;7.45;;
58615;SDS011;44385;51.992;4.206;2023-04-23T10:05:25;10.98;;;6.97;;
58615;SDS011;44385;51.992;4.206;2023-04-23T10:07:51;13.00;;;6.90;;
58615;SDS011;44385;51.992;4.206;2023-04-23T10:10:18;18.25;;;6.00;;
58615;SDS011;44385;51.992;4.206;2023-04-23T10:12:45;13.75;;;6.45;;
58615;SDS011;44385;51.992;4.206;2023-04-23T10:15:13;12.40;;;7.20;;
58615;SDS011;44385;51.992;4.206;2023-04-23T10:17:40;16.63;;;7.85;;
58615;SDS011;44385;51.992;4.206;2023-04-23T10:20:07;14.10;;;7.55;;
58615;SDS011;44385;51.992;4.206;2023-04-23T10:22:36;14.77;;;7.75;;
58615;SDS011;44385;51.992;4.206;2023-04-23T10:25:03;15.20;;;7.60;;
58615;SDS011;44385;51.992;4.206;2023-04-23T10:27:33;13.55;;;6.90;;
58615;SDS011;44385;51.992;4.206;2023-04-23T10:30:03;12.50;;;6.20;;
58615;SDS011;44385;51.992;4.206;2023-04-23T10:32:31;12.93;;;6.53;;
58615;SDS011;44385;51.992;4.206;2023-04-23T10:34:58;13.50;;;6.25;;
58615;SDS011;44385;51.992;4.206;2023-04-23T10:37:24;11.07;;;6.20;;
58615;SDS011;44385;51.992;4.206;2023-04-23T10:39:52;12.13;;;6.90;;
58615;SDS011;44385;51.992;4.206;2023-04-23T10:42:19;8.98;;;5.47;;
58615;SDS011;44385;51.992;4.206;2023-04-23T10:44:46;10.95;;;5.38;;
58615;SDS011;44385;51.992;4.206;2023-04-23T10:47:13;11.48;;;4.85;;
58615;SDS011;44385;51.992;4.206;2023-04-23T10:49:41;7.22;;;4.72;;
58615;SDS011;44385;51.992;4.206;2023-04-23T10:52:08;10.30;;;5.32;;
58615;SDS011;44385;51.992;4.206;2023-04-23T10:54:43;8.25;;;5.22;;
58615;SDS011;44385;51.992;4.206;2023-04-23T10:57:13;11.18;;;5.65;;
58615;SDS011;44385;51.992;4.206;2023-04-23T10:59:40;10.65;;;5.88;;
58615;SDS011;44385;51.992;4.206;2023-04-23T11:02:16;12.40;;;6.13;;
58615;SDS011;44385;51.992;4.206;2023-04-23T11:04:45;10.05;;;5.32;;
58615;SDS011;44385;51.992;4.206;2023-04-23T11:07:14;9.07;;;4.38;;
58615;SDS011;44385;51.992;4.206;2023-04-23T11:09:45;12.07;;;5.35;;
58615;SDS011;44385;51.992;4.206;2023-04-23T11:14:54;10.95;;;4.90;;
58615;SDS011;44385;51.992;4.206;2023-04-23T11:17:21;9.70;;;4.07;;
58615;SDS011;44385;51.992;4.206;2023-04-23T11:20:06;8.82;;;4.45;;
58615;SDS011;44385;51.992;4.206;2023-04-23T11:22:34;8.23;;;4.05;;
58615;SDS011;44385;51.992;4.206;2023-04-23T11:25:02;7.38;;;4.30;;
58615;SDS011;44385;51.992;4.206;2023-04-23T11:27:31;6.68;;;3.83;;
58615;SDS011;44385;51.992;4.206;2023-04-23T11:29:57;9.63;;;3.20;;
58615;SDS011;44385;51.992;4.206;2023-04-23T11:32:24;6.70;;;3.08;;
58615;SDS011;44385;51.992;4.206;2023-04-23T11:34:53;6.25;;;2.92;;
58615;SDS011;44385;51.992;4.206;2023-04-23T11:37:23;7.40;;;3.00;;
58615;SDS011;44385;51.992;4.206;2023-04-23T11:39:49;10.55;;;3.13;;
58615;SDS011;44385;51.992;4.206;2023-04-23T11:42:16;8.90;;;3.05;;
58615;SDS011;44385;51.992;4.206;2023-04-23T11:44:45;4.88;;;2.90;;
58615;SDS011;44385;51.992;4.206;2023-04-23T11:47:12;6.70;;;2.63;;
58615;SDS011;44385;51.992;4.206;2023-04-23T11:49:40;7.32;;;3.08;;
58615;SDS011;44385;51.992;4.206;2023-04-23T11:52:07;5.90;;;3.13;;
58615;SDS011;44385;51.992;4.206;2023-04-23T11:54:35;9.77;;;3.22;;
58615;SDS011;44385;51.992;4.206;2023-04-23T11:57:02;7.10;;;3.58;;
58615;SDS011;44385;51.992;4.206;2023-04-23T11:59:30;8.13;;;3.30;;
58615;SDS011;44385;51.992;4.206;2023-04-23T12:01:57;7.82;;;3.38;;
58615;SDS011;44385;51.992;4.206;2023-04-23T12:04:24;6.60;;;3.25;;
58615;SDS011;44385;51.992;4.206;2023-04-23T12:06:52;8.63;;;3.40;;
58615;SDS011;44385;51.992;4.206;2023-04-23T12:09:19;9.63;;;3.20;;
58615;SDS011;44385;51.992;4.206;2023-04-23T12:11:47;9.52;;;3.67;;
58615;SDS011;44385;51.992;4.206;2023-04-23T12:14:16;7.65;;;3.80;;
58615;SDS011;44385;51.992;4.206;2023-04-23T12:16:45;6.75;;;3.17;;
58615;SDS011;44385;51.992;4.206;2023-04-23T12:19:16;8.85;;;3.55;;
58615;SDS011;44385;51.992;4.206;2023-04-23T12:21:47;4.88;;;3.30;;
58615;SDS011;44385;51.992;4.206;2023-04-23T12:24:15;6.55;;;3.55;;
58615;SDS011;44385;51.992;4.206;2023-04-23T12:26:42;12.07;;;4.32;;
58615;SDS011;44385;51.992;4.206;2023-04-23T12:29:11;7.63;;;4.30;;
58615;SDS011;44385;51.992;4.206;2023-04-23T12:31:39;8.25;;;4.57;;
58615;SDS011;44385;51.992;4.206;2023-04-23T12:34:06;10.88;;;4.68;;
58615;SDS011;44385;51.992;4.206;2023-04-23T12:36:34;11.93;;;3.90;;
58615;SDS011;44385;51.992;4.206;2023-04-23T12:39:22;5.05;;;3.20;;
58615;SDS011;44385;51.992;4.206;2023-04-23T12:41:49;11.93;;;4.13;;
58615;SDS011;44385;51.992;4.206;2023-04-23T12:44:18;10.52;;;4.68;;
58615;SDS011;44385;51.992;4.206;2023-04-23T12:46:45;11.57;;;4.50;;
58615;SDS011;44385;51.992;4.206;2023-04-23T12:49:12;8.15;;;5.40;;
58615;SDS011;44385;51.992;4.206;2023-04-23T12:51:38;9.30;;;4.95;;
58615;SDS011;44385;51.992;4.206;2023-04-23T12:54:06;6.45;;;4.00;;
58615;SDS011;44385;51.992;4.206;2023-04-23T12:56:32;6.18;;;3.05;;
58615;SDS011;44385;51.992;4.206;2023-04-23T12:59:00;11.07;;;3.72;;
58615;SDS011;44385;51.992;4.206;2023-04-23T13:01:33;5.70;;;3.25;;
58615;SDS011;44385;51.992;4.206;2023-04-23T13:03:59;7.88;;;3.83;;
58615;SDS011;44385;51.992;4.206;2023-04-23T13:06:26;7.65;;;3.25;;
58615;SDS011;44385;51.992;4.206;2023-04-23T13:08:53;9.77;;;3.40;;
58615;SDS011;44385;51.992;4.206;2023-04-23T13:11:21;8.82;;;3.65;;
58615;SDS011;44385;51.992;4.206;2023-04-23T13:13:47;5.85;;;3.15;;
58615;SDS011;44385;51.992;4.206;2023-04-23T13:16:15;10.50;;;3.40;;
58615;SDS011;44385;51.992;4.206;2023-04-23T13:18:43;8.45;;;3.83;;
58615;SDS011;44385;51.992;4.206;2023-04-23T13:21:10;9.15;;;4.43;;
58615;SDS011;44385;51.992;4.206;2023-04-23T13:23:38;7.43;;;4.05;;
58615;SDS011;44385;51.992;4.206;2023-04-23T13:26:05;7.80;;;4.28;;
58615;SDS011;44385;51.992;4.206;2023-04-23T13:28:32;12.85;;;4.85;;
58615;SDS011;44385;51.992;4.206;2023-04-23T13:30:59;10.35;;;5.30;;
58615;SDS011;44385;51.992;4.206;2023-04-23T13:33:25;11.77;;;5.68;;
58615;SDS011;44385;51.992;4.206;2023-04-23T13:35:53;11.73;;;4.93;;
58615;SDS011;44385;51.992;4.206;2023-04-23T13:38:20;7.77;;;4.30;;
58615;SDS011;44385;51.992;4.206;2023-04-23T13:40:47;13.57;;;5.28;;
58615;SDS011;44385;51.992;4.206;2023-04-23T13:43:15;8.83;;;5.47;;
58615;SDS011;44385;51.992;4.206;2023-04-23T13:45:42;8.63;;;5.15;;
58615;SDS011;44385;51.992;4.206;2023-04-23T13:48:08;13.25;;;5.88;;
58615;SDS011;44385;51.992;4.206;2023-04-23T13:50:35;16.02;;;4.22;;
58615;SDS011;44385;51.992;4.206;2023-04-23T13:53:03;5.18;;;2.65;;
58615;SDS011;44385;51.992;4.206;2023-04-23T13:55:32;5.97;;;1.48;;
58615;SDS011;44385;51.992;4.206;2023-04-23T13:57:59;1.92;;;1.20;;
58615;SDS011;44385;51.992;4.206;2023-04-23T14:00:26;3.05;;;1.20;;
58615;SDS011;44385;51.992;4.206;2023-04-23T14:02:53;2.78;;;0.90;;
58615;SDS011;44385;51.992;4.206;2023-04-23T14:05:19;1.30;;;0.85;;
58615;SDS011;44385;51.992;4.206;2023-04-23T14:07:46;2.78;;;0.88;;
58615;SDS011;44385;51.992;4.206;2023-04-23T14:10:14;2.53;;;1.20;;
58615;SDS011;44385;51.992;4.206;2023-04-23T14:12:41;2.83;;;1.00;;
58615;SDS011;44385;51.992;4.206;2023-04-23T14:15:08;6.35;;;1.33;;
58615;SDS011;44385;51.992;4.206;2023-04-23T14:17:34;2.20;;;1.52;;
58615;SDS011;44385;51.992;4.206;2023-04-23T14:20:01;6.68;;;1.08;;
58615;SDS011;44385;51.992;4.206;2023-04-23T14:22:32;1.80;;;1.02;;
58615;SDS011;44385;51.992;4.206;2023-04-23T14:25:00;2.50;;;1.40;;
58615;SDS011;44385;51.992;4.206;2023-04-23T14:27:29;4.75;;;1.52;;
58615;SDS011;44385;51.992;4.206;2023-04-23T14:32:23;4.28;;;1.50;;
58615;SDS011;44385;51.992;4.206;2023-04-23T14:34:49;6.82;;;2.28;;
58615;SDS011;44385;51.992;4.206;2023-04-23T14:37:16;3.88;;;1.83;;
58615;SDS011;44385;51.992;4.206;2023-04-23T14:39:42;5.60;;;1.80;;